KI5QWQ Weather Reports


Display with metric or nautical units.
time (UTC)temp
F
wind
direction
speed
MPH
gust
MPH
rain 1hr
in
rain 24hr
in
rain mn
in
humidity
%
barometer
mb
20240530013246 0 207 1.0 2.0 0.00 0.00 0.00 1016.6
20240530012744 0 212 0.0 1.0 0.00 0.00 0.00 1016.6
20240530012242 0 242 0.0 1.0 0.00 0.00 0.00 1016.5
20240530011738 0 269 0.0 1.0 0.00 0.00 0.00 1016.6
20240530011238 0 230 0.0 0.0 0.00 0.00 0.00 1016.4
20240530010737 0 172 0.0 1.0 0.00 0.00 0.00 1016.2
20240530010235 0 205 0.0 3.0 0.00 0.00 0.00 1016.0
20240530005733 0 262 1.0 4.0 0.00 0.00 0.00 1016.2
20240530005231 0 44 0.0 3.0 0.00 0.00 0.00 1016.3
20240530004730 0 119 0.0 2.0 0.00 0.00 0.00 1016.2
20240530004229 0 171 0.0 3.0 0.00 0.00 0.00 1016.2
20240530003728 0 180 0.0 2.0 0.00 0.00 0.00 1016.4
20240530003227 0 212 0.0 3.0 0.00 0.00 0.00 1016.5
20240530002727 0 155 2.0 3.0 0.00 0.00 0.00 1016.3
20240530002224 0 164 0.0 2.0 0.00 0.00 0.00 1016.7
20240530001722 0 161 2.0 4.0 0.00 0.00 0.00 1016.5
20240530001220 0 142 0.0 3.0 0.00 0.00 0.00 1016.6
20240530000719 0 188 2.0 4.0 0.00 0.00 0.00 1016.7
20240530000218 0 162 2.0 4.0 0.00 0.00 0.00 1016.7
20240529235718 0 165 2.0 5.0 0.00 0.00 0.00 1016.7
20240529235217 0 195 2.0 4.0 0.00 0.00 0.00 1016.8
20240529234716 0 163 3.0 4.0 0.00 0.00 0.00 1016.8
20240529234215 0 186 0.0 3.0 0.00 0.00 0.00 1016.8
20240529233715 0 207 1.0 4.0 0.00 0.00 0.00 1016.9
20240529233214 0 147 4.0 5.0 0.00 0.00 0.00 1016.8
20240529232714 0 174 2.0 5.0 0.00 0.00 0.00 1016.9
20240529232213 0 171 0.0 2.0 0.00 0.00 0.00 1017.1
20240529231711 0 162 0.0 5.0 0.00 0.00 0.00 1017.2
20240529231203 0 190 1.0 4.0 0.00 0.00 0.00 1016.9
20240529230703 0 84 1.0 4.0 0.00 0.00 0.00 1017.1
20240529230201 0 151 3.0 4.0 0.00 0.00 0.00 1017.1
20240529225700 0 171 0.0 2.0 0.00 0.00 0.00 1017.1
20240529225158 0 198 1.0 3.0 0.00 0.00 0.00 1017.2
20240529224657 0 241 2.0 4.0 0.00 0.00 0.00 1017.3
20240529224154 0 214 2.0 3.0 0.00 0.00 0.00 1017.2
20240529223654 0 152 3.0 5.0 0.00 0.00 0.00 1017.2
20240529223152 86 164 0.0 3.0 0.00 0.00 0.00 59 1017.1
20240529222651 87 142 2.0 5.0 0.00 0.00 0.00 60 1017.1
20240529222150 0 332 5.0 6.0 0.00 0.00 0.00 1017.2
20240529221650 0 129 0.0 4.0 0.00 0.00 0.00 1017.3
20240529221149 0 269 0.0 4.0 0.00 0.00 0.00 1017.4
20240529220648 0 166 3.0 6.0 0.00 0.00 0.00 1017.4
20240529220147 0 217 0.0 3.0 0.00 0.00 0.00 1017.3
20240529215645 0 208 2.0 3.0 0.00 0.00 0.00 1017.4
20240529215144 0 252 0.0 3.0 0.00 0.00 0.00 1017.6
20240529214642 0 152 2.0 5.0 0.00 0.00 0.00 1017.4
20240529214141 0 184 2.0 5.0 0.00 0.00 0.00 1017.4
20240529213638 0 177 2.0 5.0 0.00 0.00 0.00 1017.3
20240529213136 0 283 0.0 5.0 0.00 0.00 0.00 1017.5
20240529212635 0 158 4.0 7.0 0.00 0.00 0.00 1017.3
20240529212135 0 357 1.0 3.0 0.00 0.00 0.00 1017.8
20240529211634 0 17 3.0 5.0 0.00 0.00 0.00 1017.5
20240529211133 0 154 0.0 4.0 0.00 0.00 0.00 1017.6
20240529210632 0 266 0.0 2.0 0.00 0.00 0.00 1017.6
20240529210131 0 140 1.0 3.0 0.00 0.00 0.00 1017.8
20240529205630 0 248 0.0 4.0 0.00 0.00 0.00 1017.6
20240529205110 0 71 0.0 3.0 0.00 0.00 0.00 1017.9
20240529204610 0 308 0.0 4.0 0.00 0.00 0.00 1017.9
20240529204107 0 339 1.0 4.0 0.00 0.00 0.00 1018.2
20240529203607 0 343 0.0 3.0 0.00 0.00 0.00 1018.0
20240529203105 0 344 0.0 4.0 0.00 0.00 0.00 1018.1
20240529202605 0 89 2.0 3.0 0.00 0.00 0.00 1018.1
20240529202104 0 145 0.0 3.0 0.00 0.00 0.00 1018.0
20240529201604 0 218 1.0 4.0 0.00 0.00 0.00 1018.2
20240529201102 0 255 0.0 2.0 0.00 0.00 0.00 1018.3
20240529200601 0 161 3.0 5.0 0.00 0.00 0.00 1018.2
20240529200101 0 202 1.0 3.0 0.00 0.00 0.00 1018.1
20240529195559 0 45 2.0 3.0 0.00 0.00 0.00 1018.3
20240529195057 0 148 2.0 4.0 0.00 0.00 0.00 1018.5
20240529194555 0 143 2.0 3.0 0.00 0.00 0.00 1018.6
20240529194054 0 150 2.0 3.0 0.00 0.00 0.00 1018.5
20240529193553 0 170 3.0 4.0 0.00 0.00 0.00 1018.5
20240529193052 0 325 0.0 6.0 0.00 0.00 0.00 1018.5
20240529192544 0 145 1.0 4.0 0.00 0.00 0.00 1018.5
20240529192043 0 14 2.0 5.0 0.00 0.00 0.00 1018.3
20240529191542 0 351 2.0 4.0 0.00 0.00 0.00 1018.5
20240529191040 0 335 1.0 2.0 0.00 0.00 0.00 1018.4
20240529190540 0 156 2.0 5.0 0.00 0.00 0.00 1018.5
20240529190038 0 299 1.0 3.0 0.00 0.00 0.00 1018.4
20240529185536 0 98 2.0 7.0 0.00 0.00 0.00 1018.5
20240529185033 0 143 2.0 4.0 0.00 0.00 0.00 1018.5
20240529184531 0 196 2.0 5.0 0.00 0.00 0.00 1018.5
20240529184030 0 203 2.0 3.0 0.00 0.00 0.00 1018.7
20240529183529 0 212 1.0 5.0 0.00 0.00 0.00 1018.6
20240529183027 0 161 0.0 3.0 0.00 0.00 0.00 1018.6
20240529182526 0 171 3.0 4.0 0.00 0.00 0.00 1018.6
20240529182026 0 138 3.0 4.0 0.00 0.00 0.00 1018.6
20240529181524 0 9 1.0 3.0 0.00 0.00 0.00 1018.8
20240529181024 0 151 2.0 5.0 0.00 0.00 0.00 1018.8
20240529180521 0 19 0.0 5.0 0.00 0.00 0.00 1018.8
20240529180019 0 179 1.0 4.0 0.00 0.00 0.00 1018.8
20240529175518 0 298 2.0 5.0 0.00 0.00 0.00 1019.0
20240529175016 0 255 2.0 6.0 0.00 0.00 0.00 1019.0
20240529174515 0 195 0.0 5.0 0.00 0.00 0.00 1018.8
20240529174014 0 293 0.0 5.0 0.00 0.00 0.00 1018.8
20240529173511 0 201 2.0 3.0 0.00 0.00 0.00 1019.1
20240529173010 0 138 2.0 7.0 0.00 0.00 0.00 1019.0
20240529172508 0 134 4.0 7.0 0.00 0.00 0.00 1019.2
20240529172007 0 175 3.0 6.0 0.00 0.00 0.00 1019.0
20240529171505 0 193 6.0 7.0 0.00 0.00 0.00 1019.0
20240529171003 0 154 0.0 5.0 0.00 0.00 0.00 1019.2
20240529170501 0 343 2.0 3.0 0.00 0.00 0.00 1019.3
20240529170000 0 222 2.0 6.0 0.00 0.00 0.00 1019.3
20240529165459 0 5 1.0 3.0 0.00 0.00 0.00 1019.4
20240529164959 0 180 1.0 4.0 0.00 0.00 0.00 1019.4
20240529164457 0 7 2.0 4.0 0.00 0.00 0.00 1019.3
20240529163956 0 12 0.0 3.0 0.00 0.00 0.00 1019.6
20240529163452 0 44 0.0 4.0 0.00 0.00 0.00 1019.8
20240529162950 0 12 2.0 4.0 0.00 0.00 0.00 1019.9
20240529162451 0 113 1.0 4.0 0.00 0.00 0.00 1020.1
20240529161950 0 207 1.0 6.0 0.00 0.00 0.00 1020.1
20240529161449 0 76 3.0 5.0 0.00 0.00 0.00 1020.2
20240529160948 0 31 3.0 3.0 0.00 0.00 0.00 1020.4
20240529160448 0 162 3.0 5.0 0.00 0.00 0.00 1020.2
20240529155947 0 211 2.0 7.0 0.00 0.00 0.00 1020.4
20240529155446 0 122 2.0 4.0 0.00 0.00 0.00 1020.3
20240529154945 0 149 4.0 5.0 0.00 0.00 0.00 1020.7
20240529154443 0 65 2.0 3.0 0.00 0.00 0.00 1020.9
20240529153943 0 25 3.0 5.0 0.00 0.00 0.00 1020.9
20240529153441 0 340 3.0 4.0 0.00 0.00 0.00 1021.0
20240529152941 0 145 2.0 5.0 0.00 0.00 0.00 1021.2
20240529152441 0 32 3.0 5.0 0.00 0.00 0.00 1021.1
20240529151940 0 12 3.0 5.0 0.00 0.00 0.00 1021.4
20240529151438 0 12 0.0 4.0 0.00 0.00 0.00 1021.7
20240529150936 0 255 0.0 4.0 0.00 0.00 0.00 1021.7
20240529150435 0 347 3.0 4.0 0.00 0.00 0.00 1021.9
20240529145934 0 293 2.0 5.0 0.00 0.00 0.00 1021.8
20240529145432 0 32 3.0 8.0 0.00 0.00 0.00 1021.8
20240529144931 0 171 1.0 4.0 0.00 0.00 0.00 1021.8
20240529144430 0 281 1.0 3.0 0.00 0.00 0.00 1021.4
20240529143929 0 121 2.0 5.0 0.00 0.00 0.00 1021.8
20240529143428 0 136 2.0 3.0 0.00 0.00 0.00 1021.9
20240529142926 0 73 0.0 3.0 0.00 0.00 0.00 1021.9
20240529142425 0 47 4.0 7.0 0.00 0.00 0.00 1021.7
20240529141924 0 230 0.0 4.0 0.00 0.00 0.00 1021.6
20240529141424 0 105 3.0 4.0 0.00 0.00 0.00 1021.5
20240529140923 0 64 2.0 4.0 0.00 0.00 0.00 1021.5
20240529140422 0 123 2.0 4.0 0.00 0.00 0.00 1021.5
20240529135920 0 352 2.0 3.0 0.00 0.00 0.00 1021.6
20240529135418 0 255 0.0 4.0 0.00 0.00 0.00 1021.6
20240529134916 0 348 0.0 3.0 0.00 0.00 0.00 1021.6
20240529134416 0 171 0.0 4.0 0.00 0.00 0.00 1021.5
20240529133915 0 183 3.0 15.0 0.00 0.00 0.00 1021.7
20240529133415 0 148 1.0 3.0 0.00 0.00 0.00 1021.9
20240529132913 0 0 0.0 3.0 0.00 0.00 0.00 1021.8
20240529132413 0 270 1.0 3.0 0.00 0.00 0.00 1021.7
20240529131912 0 29 0.0 2.0 0.00 0.00 0.00 1021.4
20240529131411 0 219 2.0 3.0 0.00 0.00 0.00 1021.6
20240529130909 0 263 0.0 2.0 0.00 0.00 0.00 1021.3
20240529130409 0 229 0.0 2.0 0.00 0.00 0.00 1021.1
20240529125907 0 269 0.0 2.0 0.00 0.00 0.00 1021.2
20240529125408 0 44 0.0 1.0 0.00 0.00 0.00 1021.2
20240529124908 0 187 0.0 2.0 0.00 0.00 0.00 1020.9
20240529124406 0 7 0.0 1.0 0.00 0.00 0.00 1021.2
20240529123904 0 205 1.0 2.0 0.00 0.00 0.00 1021.0
20240529123402 0 298 0.0 2.0 0.00 0.00 0.00 1020.8
20240529122901 0 58 0.0 2.0 0.00 0.00 0.00 1020.8
20240529122359 0 315 0.0 2.0 0.00 0.00 0.00 1020.8
20240529121858 0 154 0.0 1.0 0.00 0.00 0.00 1020.6
20240529121357 0 255 0.0 2.0 0.00 0.00 0.00 1020.6
20240529120855 0 11 0.0 2.0 0.00 0.00 0.00 1020.8
20240529120353 0 224 0.0 2.0 0.00 0.00 0.00 1020.8
20240529115851 0 235 0.0 2.0 0.00 0.00 0.00 1020.6
20240529115350 0 156 0.0 2.0 0.00 0.00 0.00 1020.5
20240529114850 0 253 0.0 3.0 0.00 0.00 0.00 1020.5
20240529114350 0 359 0.0 2.0 0.00 0.00 0.00 1020.9
20240529113850 0 145 0.0 1.0 0.00 0.00 0.00 1021.2
20240529113348 0 117 0.0 1.0 0.00 0.00 0.00 1021.2
20240529112847 0 242 0.0 1.0 0.00 0.00 0.00 1020.9
20240529112348 0 235 0.0 2.0 0.00 0.00 0.00 1021.0
20240529111847 0 293 0.0 1.0 0.00 0.00 0.00 1021.2
20240529111346 0 293 0.0 2.0 0.00 0.00 0.00 1021.2
20240529110844 0 246 0.0 1.0 0.00 0.00 0.00 1021.3
20240529110342 0 304 0.0 1.0 0.00 0.00 0.00 1021.2
20240529105841 0 230 1.0 1.0 0.00 0.00 0.00 1021.0
20240529105338 0 224 0.0 2.0 0.00 0.00 0.00 1020.9
20240529104838 0 147 0.0 1.0 0.00 0.00 0.00 1020.8
20240529104336 0 214 0.0 2.0 0.00 0.00 0.00 1020.7
20240529103836 0 217 0.0 2.0 0.00 0.00 0.00 1020.9
20240529103336 0 213 0.0 2.0 0.00 0.00 0.00 1021.0
20240529102834 0 202 0.0 2.0 0.00 0.00 0.00 1020.9
20240529102334 0 269 0.0 2.0 0.00 0.00 0.00 1020.7
20240529101833 0 217 0.0 2.0 0.00 0.00 0.00 1020.7
20240529101332 0 181 0.0 1.0 0.00 0.00 0.00 1020.7
20240529100832 0 331 0.0 4.0 0.00 0.00 0.00 1020.8
20240529100330 0 346 1.0 3.0 0.00 0.00 0.00 1020.8
20240529095828 0 288 0.0 2.0 0.00 0.00 0.00 1021.0
20240529095327 0 11 0.0 2.0 0.00 0.00 0.00 1021.1
20240529094826 0 50 0.0 0.0 0.00 0.00 0.00 1021.1
20240529094326 0 15 0.0 3.0 0.00 0.00 0.00 1021.0
20240529093824 0 142 0.0 1.0 0.00 0.00 0.00 1021.0
20240529093323 0 53 0.0 2.0 0.00 0.00 0.00 1020.8
20240529092821 0 294 2.0 4.0 0.00 0.00 0.00 1020.7
20240529092319 0 296 1.0 3.0 0.00 0.00 0.00 1020.6
20240529091819 0 354 2.0 6.0 0.00 0.00 0.00 1020.6
20240529091319 0 6 1.0 4.0 0.00 0.00 0.00 1020.5
20240529090818 0 32 5.0 6.0 0.00 0.00 0.00 1020.3
20240529090317 0 38 3.0 8.0 0.00 0.00 0.00 1020.3
20240529085815 0 137 3.0 6.0 0.00 0.00 0.00 1020.3
20240529085314 0 57 2.0 6.0 0.00 0.00 0.00 1020.0
20240529084813 0 355 2.0 8.0 0.00 0.00 0.00 1019.7
20240529084312 0 68 1.0 7.0 0.00 0.00 0.00 1019.4
20240529083808 0 292 2.0 3.0 0.00 0.00 0.00 1019.4
20240529083307 0 65 4.0 10.0 0.00 0.00 0.00 1019.4
20240529082806 0 44 1.0 5.0 0.00 0.00 0.00 1019.6
20240529082306 0 37 3.0 7.0 0.00 0.00 0.00 1019.6
20240529081801 0 46 3.0 9.0 0.00 0.00 0.00 1019.4
20240529081300 0 251 2.0 11.0 0.00 0.00 0.00 1019.5
20240529080757 0 55 2.0 8.0 0.00 0.00 0.00 1019.5
20240529080255 0 98 2.0 10.0 0.00 0.00 0.00 1019.6
20240529075754 0 10 4.0 6.0 0.00 0.00 0.00 1019.4
20240529075251 0 322 5.0 6.0 0.00 0.00 0.00 1019.3
20240529074750 0 351 2.0 11.0 0.00 0.00 0.00 1019.1
20240529074249 0 26 1.0 7.0 0.00 0.00 0.00 1018.8
20240529073749 0 82 3.0 3.0 0.00 0.00 0.00 1019.2
20240529073248 0 303 2.0 3.0 0.00 0.00 0.00 1019.5
20240529072747 0 271 3.0 3.0 0.00 0.00 0.00 1019.3
20240529072246 0 202 0.0 5.0 0.00 0.00 0.00 1019.7
20240529071745 0 269 0.0 4.0 0.00 0.00 0.00 1019.3
20240529071242 0 325 1.0 5.0 0.00 0.00 0.00 1019.2
20240529070741 0 352 3.0 8.0 0.00 0.00 0.00 1019.2
20240529070240 0 359 3.0 8.0 0.00 0.00 0.00 1019.4
20240529065738 0 276 0.0 11.0 0.00 0.00 0.00 1019.1
20240529065237 0 9 3.0 7.0 0.00 0.00 0.00 1018.8
20240529064737 0 5 0.0 9.0 0.00 0.00 0.00 1018.9
20240529064236 0 335 4.0 7.0 0.00 0.00 0.00 1018.6
20240529063734 0 278 2.0 4.0 0.00 0.00 0.00 1018.8
20240529063233 0 301 1.0 4.0 0.00 0.00 0.00 1018.4
20240529062732 0 110 3.0 5.0 0.00 0.00 0.00 1018.0
20240529062231 0 290 3.0 6.0 0.00 0.00 0.00 1018.0
20240529061730 0 66 3.0 5.0 0.00 0.00 0.00 1017.2
20240529061228 0 242 0.0 7.0 0.00 0.00 0.00 1016.4
20240529060728 0 288 2.0 4.0 0.00 0.00 0.00 1015.6
20240529060227 0 201 1.0 3.0 0.00 0.00 0.00 1014.9
20240529055726 0 169 5.0 7.0 0.00 0.00 0.00 1014.9
20240529055225 0 166 2.0 13.0 0.00 0.00 0.00 1014.4
20240529054724 0 207 3.0 20.0 0.00 0.00 0.00 1014.5
20240529054223 0 204 3.0 7.0 0.00 0.00 0.00 1014.2
20240529053721 0 179 3.0 14.0 0.00 0.00 0.00 1014.1
20240529053220 0 215 3.0 11.0 0.00 0.00 0.00 1014.1
20240529052717 0 193 3.0 15.0 0.00 0.00 0.00 1012.8
20240529052216 0 140 6.0 13.0 0.00 0.00 0.00 1013.0
20240529051714 0 163 8.0 24.0 0.00 0.00 0.00 1013.2
20240529051212 0 165 8.0 10.0 0.00 0.00 0.00 1015.2
20240529050712 0 222 3.0 17.0 0.00 0.00 0.00 1017.2
20240529050211 0 198 4.0 20.0 0.00 0.00 0.00 1018.4
20240529045709 0 170 3.0 9.0 0.00 0.00 0.00 1019.8
20240529045207 0 170 1.0 7.0 0.00 0.00 0.00 1020.8
20240529044706 0 166 2.0 6.0 0.00 0.00 0.00 1021.3
20240529044204 0 207 2.0 4.0 0.00 0.00 0.00 1021.9
20240529043702 0 130 1.0 3.0 0.00 0.00 0.00 1021.9
20240529043201 0 249 0.0 4.0 0.00 0.00 0.00 1021.8
20240529042700 0 230 0.0 3.0 0.00 0.00 0.00 1021.5
20240529042200 0 309 0.0 0.0 0.00 0.00 0.00 1021.7
20240529041659 0 322 0.0 0.0 0.00 0.00 0.00 1021.4
20240529041157 0 322 0.0 1.0 0.00 0.00 0.00 1021.1
20240529040657 0 230 0.0 1.0 0.00 0.00 0.00 1021.3
20240529040156 0 218 0.0 2.0 0.00 0.00 0.00 1020.5
20240529035656 0 148 2.0 3.0 0.00 0.00 0.00 1020.1
20240529035154 0 205 0.0 5.0 0.00 0.00 0.00 1020.1
20240529035027 0 160 5.0 8.0 0.00 0.00 0.00 1020.0
20240529034202 0 172 3.0 5.0 0.00 0.00 0.00 1020.2
20240529033127 0 119 0.0 4.0 0.00 0.00 0.00 1020.0
20240529031306 0 222 0.0 1.0 0.00 0.00 0.00 1019.5
20240529025703 0 156 0.0 0.0 0.00 0.00 0.00 1019.3
20240529024407 0 124 0.0 0.0 0.00 0.00 0.00 1018.9
20240529023145 0 119 0.0 1.0 0.00 0.00 0.00 1018.8
20240529021750 0 107 0.0 2.0 0.00 0.00 0.00 1018.5
20240529015738 0 154 0.0 2.0 0.00 0.00 0.00 1018.6
20240529014128 0 214 1.0 2.0 0.00 0.00 0.00 1018.6